Time;durP1;ratioP1;P1;durP2;ratioP2;P2;SDS_P1;SDS_P2;PMS_P1;PMS_P2;Temp;Humidity;BMP_temperature;BMP_pressure;BME280_temperature;BME280_humidity;BME280_pressure;Samples;Min_cycle;Max_cycle;Signal;HPM_P1;HPM_P2
2022/01/17 00:24:12;;;;;;;;;;;;;;;;;;;;;
2022/01/17 00:30:56;;;;;;;2.50;2.40;;;2.60;99.90;;;;;;4797453;29;20539;-78
2022/01/17 00:50:40;;;;;;;0.30;0.20;;;2.70;99.90;;;;;;4806166;29;20445;-78
2022/01/17 01:30:51;;;;;;;;;;;;;;;;;;;;;
2022/01/17 02:05:12;;;;;;;1.13;1.10;;;2.60;99.90;;;;;;4659502;30;20523;-78
2022/01/17 02:22:13;;;;;;;;;;;;;;;;;;;;;
2022/01/17 02:29:17;;;;;;;;;;;;;;;;;;;;;
2022/01/17 03:00:01;;;;;;;0.30;0.30;;;2.80;99.90;;;;;;4717882;30;20569;-78
2022/01/17 03:02:57;;;;;;;0.33;0.27;;;2.80;99.90;;;;;;4877480;29;20463;-78
2022/01/17 03:09:31;;;;;;;0.30;0.20;;;2.80;99.90;;;;;;4878030;29;20461;-78
2022/01/17 03:26:56;;;;;;;0.30;0.20;;;2.80;99.90;;;;;;4875606;29;20458;-78
2022/01/17 03:40:17;;;;;;;0.60;0.60;;;2.80;99.90;;;;;;4903595;29;20974;-78
2022/01/17 03:49:06;;;;;;;0.30;0.30;;;2.90;99.90;;;;;;4896511;29;20444;-78
2022/01/17 03:51:40;;;;;;;0.30;0.20;;;2.90;99.90;;;;;;4917810;29;20859;-79
2022/01/17 03:58:40;;;;;;;;;;;;;;;;;;;;;
2022/01/17 04:04:19;;;;;;;0.30;0.30;;;2.90;99.90;;;;;;4906118;29;20487;-78
2022/01/17 04:07:25;;;;;;;0.30;0.20;;;2.90;99.90;;;;;;4917027;29;20436;-78
2022/01/17 04:13:20;;;;;;;0.40;0.40;;;2.90;99.90;;;;;;4915159;29;20457;-79
2022/01/17 04:19:33;;;;;;;0.60;0.60;;;2.80;99.90;;;;;;4888887;29;20484;-79
2022/01/17 04:22:42;;;;;;;0.30;0.30;;;2.70;99.90;;;;;;4908893;29;20515;-78
2022/01/17 04:25:46;;;;;;;0.40;0.30;;;2.70;99.90;;;;;;4903093;29;20473;-78
2022/01/17 04:28:35;;;;;;;0.30;0.30;;;2.70;99.90;;;;;;4916804;29;20448;-78
2022/01/17 04:34:13;;;;;;;0.30;0.20;;;2.70;99.90;;;;;;4912900;29;20534;-78
2022/01/17 04:36:54;;;;;;;0.30;0.20;;;2.60;99.90;;;;;;4916565;29;20472;-78
2022/01/17 04:39:47;;;;;;;0.30;0.30;;;2.60;99.90;;;;;;4921175;29;20440;-78
2022/01/17 04:42:48;;;;;;;0.30;0.30;;;2.60;99.90;;;;;;4917015;29;20446;-78
2022/01/17 04:45:20;;;;;;;0.30;0.30;;;2.60;99.90;;;;;;4909028;29;20470;-78
2022/01/17 04:47:48;;;;;;;0.40;0.40;;;2.60;99.90;;;;;;4916580;29;20925;-78
2022/01/17 04:50:19;;;;;;;1.33;1.33;;;2.60;99.90;;;;;;4916471;29;20455;-79
2022/01/17 04:52:48;;;;;;;0.30;0.20;;;2.60;99.90;;;;;;4916256;29;20471;-78
2022/01/17 04:55:20;;;;;;;0.30;0.30;;;2.60;99.90;;;;;;4917050;29;21016;-78
2022/01/17 04:57:48;;;;;;;0.30;0.30;;;2.60;99.90;;;;;;4916804;29;20425;-78
2022/01/17 05:00:46;;;;;;;0.30;0.20;;;2.60;99.90;;;;;;4916536;29;20551;-78
2022/01/17 05:03:13;;;;;;;0.33;0.27;;;2.60;99.90;;;;;;4916849;29;20444;-78
2022/01/17 05:05:39;;;;;;;0.87;0.37;;;2.60;99.90;;;;;;4919078;29;20440;-78
2022/01/17 05:08:07;;;;;;;0.30;0.30;;;2.60;99.90;;;;;;4919826;29;20462;-78
2022/01/17 05:10:35;;;;;;;0.40;0.30;;;2.60;99.90;;;;;;4919839;29;20440;-78
2022/01/17 05:13:02;;;;;;;0.30;0.30;;;2.60;99.90;;;;;;4920240;29;20457;-78
2022/01/17 05:15:33;;;;;;;0.30;0.20;;;2.60;99.90;;;;;;4919921;29;20497;-78
2022/01/17 05:18:23;;;;;;;0.63;0.63;;;2.60;99.90;;;;;;4919458;29;20443;-78
2022/01/17 05:20:49;;;;;;;0.30;0.20;;;2.60;99.90;;;;;;4919337;29;20480;-79
2022/01/17 05:23:16;;;;;;;0.57;0.57;;;2.60;99.90;;;;;;4919736;29;20463;-79
2022/01/17 05:25:44;;;;;;;0.30;0.20;;;2.60;99.90;;;;;;4919504;29;20969;-78
2022/01/17 05:28:10;;;;;;;0.30;0.20;;;2.60;99.90;;;;;;4919448;29;20956;-78
2022/01/17 05:30:37;;;;;;;0.30;0.20;;;2.60;99.90;;;;;;4919733;29;20464;-78
2022/01/17 05:33:04;;;;;;;0.30;0.30;;;2.60;99.90;;;;;;4919578;29;20456;-78
2022/01/17 05:35:31;;;;;;;0.30;0.20;;;2.60;99.90;;;;;;4919246;29;20868;-78
2022/01/17 05:37:58;;;;;;;0.97;0.40;;;2.70;99.90;;;;;;4919506;29;20537;-78
2022/01/17 05:40:25;;;;;;;0.30;0.20;;;2.70;99.90;;;;;;4919250;29;20944;-78
2022/01/17 05:42:53;;;;;;;0.50;0.50;;;2.70;99.90;;;;;;4919363;29;20467;-78
2022/01/17 05:45:20;;;;;;;0.30;0.30;;;2.70;99.90;;;;;;4919311;29;20487;-78
2022/01/17 05:47:47;;;;;;;0.30;0.20;;;2.70;99.90;;;;;;4918993;29;20440;-78
2022/01/17 05:50:14;;;;;;;0.30;0.30;;;2.70;99.90;;;;;;4919251;29;20447;-78
2022/01/17 05:52:42;;;;;;;0.30;0.20;;;2.70;99.90;;;;;;4919127;29;20459;-78
2022/01/17 05:55:11;;;;;;;0.50;0.30;;;2.80;99.90;;;;;;4919186;29;20483;-78
2022/01/17 05:57:38;;;;;;;0.30;0.30;;;2.80;99.90;;;;;;4919060;29;20452;-78
2022/01/17 06:00:22;;;;;;;0.30;0.30;;;2.80;99.90;;;;;;4918803;29;20825;-78
2022/01/17 06:02:53;;;;;;;0.40;0.40;;;2.80;99.90;;;;;;4918893;29;20925;-78
2022/01/17 06:05:20;;;;;;;0.30;0.30;;;2.80;99.90;;;;;;4919258;29;20531;-78
2022/01/17 06:07:50;;;;;;;0.30;0.30;;;2.80;99.90;;;;;;4919304;29;20463;-78
2022/01/17 06:10:24;;;;;;;0.30;0.30;;;2.90;99.90;;;;;;4918764;29;20956;-78
2022/01/17 06:12:55;;;;;;;0.30;0.30;;;2.80;99.90;;;;;;4918999;29;20438;-78
2022/01/17 06:15:45;;;;;;;0.30;0.20;;;2.90;99.90;;;;;;4918426;29;21007;-78
2022/01/17 06:18:14;;;;;;;0.50;0.50;;;2.90;99.90;;;;;;4918057;29;20553;-78
2022/01/17 06:20:41;;;;;;;0.30;0.30;;;2.90;99.90;;;;;;4918509;29;20940;-78
2022/01/17 06:23:07;;;;;;;0.30;0.20;;;2.90;99.90;;;;;;4918639;29;20455;-78
2022/01/17 06:25:54;;;;;;;0.37;0.37;;;2.90;99.90;;;;;;4918477;29;20523;-78
2022/01/17 06:28:27;;;;;;;0.30;0.30;;;2.90;99.90;;;;;;4918250;29;20916;-78
2022/01/17 06:31:00;;;;;;;0.50;0.50;;;2.90;99.90;;;;;;4918297;29;20543;-78
2022/01/17 06:33:27;;;;;;;0.30;0.30;;;3.00;99.90;;;;;;4918431;29;20468;-78
2022/01/17 06:35:59;;;;;;;0.30;0.20;;;3.00;99.90;;;;;;4918456;29;20535;-78
2022/01/17 06:38:36;;;;;;;0.30;0.30;;;3.00;99.90;;;;;;4918026;29;20479;-78
2022/01/17 06:41:40;;;;;;;0.30;0.20;;;3.00;99.90;;;;;;4918481;29;20435;-78
2022/01/17 06:44:20;;;;;;;0.30;0.30;;;3.10;99.90;;;;;;4918235;29;20482;-78
2022/01/17 06:46:56;;;;;;;0.67;0.30;;;3.10;99.90;;;;;;4918400;29;20438;-78
2022/01/17 06:53:09;;;;;;;0.30;0.20;;;3.10;99.90;;;;;;4915712;29;20463;-78
2022/01/17 06:59:25;;;;;;;0.30;0.20;;;3.10;99.90;;;;;;4898283;29;20884;-78
2022/01/17 07:02:10;;;;;;;;;;;;;;;;;;;;;
2022/01/17 07:07:28;;;;;;;0.60;0.60;;;3.00;99.90;;;;;;4914129;29;20492;-78
2022/01/17 07:09:56;;;;;;;0.47;0.47;;;3.00;99.90;;;;;;4917890;29;20966;-78
2022/01/17 07:12:23;;;;;;;0.30;0.30;;;3.00;99.90;;;;;;4916246;29;20464;-78
2022/01/17 07:15:01;;;;;;;0.30;0.20;;;3.00;99.90;;;;;;4917814;29;20558;-78
2022/01/17 07:17:45;;;;;;;0.30;0.20;;;2.90;99.90;;;;;;4917814;29;20480;-78
2022/01/17 07:20:17;;;;;;;0.30;0.20;;;2.90;99.90;;;;;;4917456;29;20490;-78
2022/01/17 07:25:44;;;;;;;0.30;0.20;;;2.90;99.90;;;;;;4916194;29;20466;-78
2022/01/17 07:28:15;;;;;;;0.30;0.30;;;2.90;99.90;;;;;;4917298;29;20428;-78
2022/01/17 07:30:42;;;;;;;0.30;0.30;;;2.90;99.90;;;;;;4917620;29;20432;-78
2022/01/17 07:33:26;;;;;;;0.30;0.30;;;2.90;99.90;;;;;;4917346;29;20531;-78
2022/01/17 07:35:58;;;;;;;0.30;0.20;;;2.90;99.90;;;;;;4917341;29;20481;-78
2022/01/17 07:38:35;;;;;;;0.30;0.27;;;2.90;99.90;;;;;;4917557;29;20447;-78
2022/01/17 07:41:09;;;;;;;0.30;0.30;;;2.90;99.90;;;;;;4917434;29;20483;-78
2022/01/17 07:43:39;;;;;;;0.30;0.30;;;2.90;99.90;;;;;;4916921;29;20468;-78
2022/01/17 07:46:23;;;;;;;0.30;0.30;;;3.00;99.90;;;;;;4917343;29;20440;-78
2022/01/17 07:49:08;;;;;;;0.30;0.30;;;3.00;99.90;;;;;;4916879;29;20444;-78
2022/01/17 07:51:39;;;;;;;0.30;0.30;;;2.90;99.90;;;;;;4917123;29;20441;-78
2022/01/17 07:54:10;;;;;;;0.30;0.30;;;2.90;99.90;;;;;;4916797;29;20575;-78
2022/01/17 07:56:37;;;;;;;0.33;0.27;;;2.90;99.90;;;;;;4917156;29;20527;-78
2022/01/17 07:59:04;;;;;;;0.30;0.20;;;2.90;99.90;;;;;;4917395;29;20436;-78
2022/01/17 08:01:32;;;;;;;0.30;0.20;;;2.90;99.90;;;;;;4916742;29;20436;-78
2022/01/17 08:04:00;;;;;;;0.30;0.30;;;2.90;99.90;;;;;;4916977;29;20476;-78
2022/01/17 08:06:27;;;;;;;0.30;0.30;;;2.90;99.90;;;;;;4916801;29;20818;-78
2022/01/17 08:14:05;;;;;;;0.30;0.27;;;3.10;99.90;;;;;;5149654;23;20503;-79
2022/01/17 08:16:31;;;;;;;0.30;0.30;;;3.10;99.90;;;;;;4917896;29;20521;-79
2022/01/17 08:19:00;;;;;;;0.30;0.20;;;3.10;99.90;;;;;;4917022;29;20456;-80
2022/01/17 08:21:26;;;;;;;1.37;0.50;;;3.10;99.90;;;;;;4917037;29;20835;-80
2022/01/17 08:23:53;;;;;;;3.27;0.73;;;3.20;99.90;;;;;;4916535;29;21020;-79
2022/01/17 08:26:26;;;;;;;0.30;0.30;;;3.30;99.90;;;;;;4916909;29;20448;-79
2022/01/17 08:29:00;;;;;;;0.30;0.30;;;3.40;99.90;;;;;;4916897;29;20891;-79
2022/01/17 08:31:31;;;;;;;1.57;0.80;;;3.40;99.90;;;;;;4916909;29;20444;-79
2022/01/17 08:33:59;;;;;;;0.30;0.20;;;3.40;99.90;;;;;;4916460;29;20476;-79
2022/01/17 08:36:26;;;;;;;0.43;0.43;;;3.40;99.90;;;;;;4916582;29;20483;-79
2022/01/17 08:38:54;;;;;;;0.30;0.30;;;3.40;99.90;;;;;;4916751;29;20462;-79
2022/01/17 08:41:23;;;;;;;0.37;0.37;;;3.50;99.90;;;;;;4920484;29;20499;-79
2022/01/17 08:43:50;;;;;;;0.30;0.30;;;3.40;99.90;;;;;;4920171;29;20853;-79
2022/01/17 08:46:17;;;;;;;1.10;0.70;;;3.40;99.90;;;;;;4919987;29;20830;-79
2022/01/17 08:48:44;;;;;;;0.73;0.47;;;3.40;99.90;;;;;;4920451;29;20463;-79
2022/01/17 08:51:12;;;;;;;0.30;0.30;;;3.50;99.90;;;;;;4920442;29;20463;-79
2022/01/17 08:53:39;;;;;;;0.30;0.30;;;3.60;99.90;;;;;;4920199;29;20483;-79
2022/01/17 08:56:06;;;;;;;0.30;0.30;;;3.80;99.90;;;;;;4920060;29;20459;-79
2022/01/17 08:58:34;;;;;;;0.43;0.43;;;3.90;99.90;;;;;;4920053;29;20467;-79
2022/01/17 09:01:00;;;;;;;1.00;0.80;;;4.00;99.90;;;;;;4920014;29;20463;-79
2022/01/17 09:03:27;;;;;;;0.93;0.93;;;4.00;99.90;;;;;;4919938;29;20475;-79
2022/01/17 09:05:54;;;;;;;0.30;0.20;;;4.00;99.90;;;;;;4920130;29;20452;-79
2022/01/17 09:08:23;;;;;;;5.60;0.60;;;4.00;99.90;;;;;;4919863;29;20440;-78
2022/01/17 09:10:54;;;;;;;0.30;0.20;;;4.00;99.90;;;;;;4920059;29;20459;-78
2022/01/17 09:13:20;;;;;;;0.40;0.30;;;4.10;99.90;;;;;;4919852;29;20488;-78
2022/01/17 09:15:47;;;;;;;0.30;0.30;;;4.10;99.90;;;;;;4919668;29;20440;-78
2022/01/17 09:18:16;;;;;;;0.40;0.37;;;4.10;99.90;;;;;;4919888;29;20483;-78
2022/01/17 09:20:43;;;;;;;0.50;0.50;;;4.20;99.90;;;;;;4919832;29;20539;-78
2022/01/17 09:23:10;;;;;;;0.30;0.30;;;4.30;99.90;;;;;;4919331;29;20454;-78
2022/01/17 09:25:38;;;;;;;0.30;0.30;;;4.30;99.90;;;;;;4919774;29;20822;-78
2022/01/17 09:28:06;;;;;;;0.40;0.40;;;4.40;99.90;;;;;;4919727;29;20448;-78
2022/01/17 09:30:33;;;;;;;0.30;0.30;;;4.50;99.90;;;;;;4919409;29;20961;-78
2022/01/17 09:33:00;;;;;;;0.30;0.30;;;4.50;99.90;;;;;;4919852;29;20454;-78
2022/01/17 09:35:27;;;;;;;0.50;0.50;;;4.60;99.90;;;;;;4919506;29;20476;-78
2022/01/17 09:37:54;;;;;;;0.30;0.30;;;4.60;99.90;;;;;;4919489;29;20484;-78
2022/01/17 09:40:21;;;;;;;0.30;0.20;;;4.70;99.90;;;;;;4918975;29;20979;-79
2022/01/17 09:42:50;;;;;;;0.30;0.20;;;4.90;99.90;;;;;;4919235;29;20448;-78
2022/01/17 09:45:20;;;;;;;1.93;0.60;;;5.30;99.90;;;;;;4919082;29;21010;-79
2022/01/17 09:47:47;;;;;;;0.53;0.53;;;5.70;99.90;;;;;;4919373;29;20455;-79
2022/01/17 09:50:19;;;;;;;0.30;0.30;;;5.90;99.90;;;;;;4919267;29;20456;-79
2022/01/17 09:52:48;;;;;;;0.30;0.20;;;6.20;99.90;;;;;;4919308;29;20447;-79
2022/01/17 09:55:21;;;;;;;0.30;0.20;;;6.20;99.90;;;;;;4918779;29;20860;-79
2022/01/17 09:57:52;;;;;;;0.30;0.30;;;6.30;99.90;;;;;;4919238;29;20503;-79
2022/01/17 10:00:24;;;;;;;0.30;0.30;;;6.50;99.90;;;;;;4919192;29;20444;-79
2022/01/17 10:02:51;;;;;;;0.37;0.27;;;6.40;99.90;;;;;;4919172;29;20479;-79
2022/01/17 10:05:18;;;;;;;0.40;0.40;;;6.50;99.90;;;;;;4918970;29;20483;-79
2022/01/17 10:08:09;;;;;;;0.30;0.30;;;6.60;99.90;;;;;;4919037;29;20456;-79
2022/01/17 10:10:44;;;;;;;1.17;0.33;;;6.70;99.90;;;;;;4900399;29;20459;-79
2022/01/17 10:13:16;;;;;;;0.40;0.30;;;6.60;99.90;;;;;;4918643;29;20507;-79
2022/01/17 10:15:57;;;;;;;0.33;0.33;;;6.40;99.90;;;;;;4918643;29;20988;-79
2022/01/17 10:18:27;;;;;;;0.60;0.60;;;6.40;99.90;;;;;;4918803;29;20476;-79
2022/01/17 10:20:57;;;;;;;0.87;0.40;;;7.30;99.90;;;;;;4918845;29;20819;-79
2022/01/17 10:23:43;;;;;;;0.30;0.30;;;8.20;99.90;;;;;;4918380;29;21000;-79
2022/01/17 10:29:09;;;;;;;0.40;0.40;;;9.00;99.90;;;;;;5219971;23;20499;-78
2022/01/17 10:37:08;;;;;;;0.77;0.40;;;8.20;99.90;;;;;;4918829;29;20538;-78
2022/01/17 10:39:37;;;;;;;0.30;0.20;;;7.80;99.90;;;;;;4918471;29;20456;-78
2022/01/17 10:42:29;;;;;;;0.30;0.30;;;7.70;99.90;;;;;;4918444;29;20440;-78
2022/01/17 10:45:04;;;;;;;0.30;0.20;;;7.90;99.90;;;;;;4918053;29;21006;-79
2022/01/17 10:47:31;;;;;;;0.30;0.30;;;8.20;99.90;;;;;;4919234;29;20505;-79
2022/01/17 10:50:01;;;;;;;0.40;0.33;;;8.50;99.90;;;;;;4918074;29;20896;-79
2022/01/17 10:52:30;;;;;;;0.30;0.30;;;8.70;99.90;;;;;;4918554;29;20451;-79
2022/01/17 10:54:58;;;;;;;0.30;0.30;;;8.80;99.90;;;;;;4918178;29;20452;-79
2022/01/17 11:10:25;;;;;;;0.40;0.30;;;7.30;99.90;;;;;;5233815;23;20499;-79
2022/01/17 11:15:27;;;;;;;0.30;0.20;;;7.00;99.90;;;;;;5815916;23;20801;-77
2022/01/17 11:17:56;;;;;;;0.30;0.20;;;6.90;99.90;;;;;;5399051;23;20527;-78
2022/01/17 11:20:25;;;;;;;0.30;0.20;;;6.90;99.90;;;;;;5474455;23;20491;-77
2022/01/17 11:22:55;;;;;;;0.40;0.30;;;6.70;99.90;;;;;;5761432;23;20440;-79
2022/01/17 11:27:59;;;;;;;0.30;0.20;;;6.90;99.90;;;;;;5279827;23;20503;-79
2022/01/17 11:33:03;;;;;;;0.40;0.30;;;6.90;99.90;;;;;;5807679;23;20800;-78
2022/01/17 11:35:34;;;;;;;0.30;0.20;;;6.80;99.90;;;;;;4898877;29;20891;-78
2022/01/17 11:38:02;;;;;;;0.40;0.30;;;6.80;99.90;;;;;;4898184;29;20977;-78
2022/01/17 11:40:30;;;;;;;0.40;0.37;;;6.60;99.90;;;;;;4898616;29;20464;-78
2022/01/17 11:42:59;;;;;;;0.30;0.20;;;6.60;99.90;;;;;;4898542;29;20450;-78
2022/01/17 11:45:37;;;;;;;0.30;0.20;;;6.50;99.90;;;;;;4898333;29;21025;-79
2022/01/17 11:48:19;;;;;;;0.43;0.43;;;6.50;99.90;;;;;;4898457;29;20524;-79
2022/01/17 11:50:48;;;;;;;0.30;0.20;;;6.50;99.90;;;;;;4898462;29;20433;-79
2022/01/17 11:53:41;;;;;;;0.30;0.30;;;6.40;99.90;;;;;;4898411;29;20502;-79
2022/01/17 11:56:08;;;;;;;0.30;0.20;;;6.50;99.90;;;;;;4898425;29;20441;-79
2022/01/17 11:58:42;;;;;;;0.30;0.20;;;6.50;99.90;;;;;;4898324;29;20568;-79
2022/01/17 12:01:20;;;;;;;0.40;0.30;;;6.50;99.90;;;;;;4898348;29;20441;-79
2022/01/17 12:03:49;;;;;;;0.40;0.30;;;6.50;99.90;;;;;;4898244;29;20472;-79
2022/01/17 12:06:22;;;;;;;0.30;0.20;;;6.50;99.90;;;;;;4899138;29;20452;-79
2022/01/17 12:08:51;;;;;;;0.30;0.30;;;6.40;99.90;;;;;;4898287;29;20437;-79
2022/01/17 12:11:29;;;;;;;0.30;0.20;;;6.50;99.90;;;;;;4898638;29;20450;-79
2022/01/17 12:14:01;;;;;;;0.30;0.30;;;6.50;99.90;;;;;;4898201;29;20477;-79
2022/01/17 12:16:36;;;;;;;0.70;0.63;;;6.50;99.90;;;;;;4902149;29;20438;-79
2022/01/17 12:19:11;;;;;;;0.30;0.20;;;6.60;99.90;;;;;;4901699;29;20512;-78
2022/01/17 12:21:41;;;;;;;0.30;0.20;;;6.60;99.90;;;;;;4902160;29;20453;-80
2022/01/17 12:24:36;;;;;;;0.30;0.30;;;6.50;99.90;;;;;;4902074;29;20857;-80
2022/01/17 12:27:09;;;;;;;0.30;0.20;;;6.40;99.90;;;;;;4902100;29;20440;-79
2022/01/17 12:29:40;;;;;;;0.30;0.20;;;6.40;99.90;;;;;;4901740;29;20437;-79
2022/01/17 12:32:08;;;;;;;0.30;0.30;;;6.40;99.90;;;;;;4901680;29;20441;-79
2022/01/17 12:34:42;;;;;;;0.30;0.20;;;6.40;99.90;;;;;;4901448;29;20488;-79
2022/01/17 12:37:30;;;;;;;0.30;0.20;;;6.40;99.90;;;;;;4901821;29;20440;-79
2022/01/17 12:40:09;;;;;;;0.40;0.40;;;6.40;99.90;;;;;;4901792;29;20505;-79
2022/01/17 12:42:56;;;;;;;0.30;0.20;;;6.40;99.90;;;;;;4901735;29;20433;-78
2022/01/17 12:45:27;;;;;;;0.30;0.30;;;6.40;99.90;;;;;;4901677;29;20830;-78
2022/01/17 12:47:54;;;;;;;0.30;0.30;;;6.30;99.90;;;;;;4901635;29;20441;-78
2022/01/17 12:50:26;;;;;;;0.30;0.20;;;6.40;99.90;;;;;;4901641;29;20437;-78
2022/01/17 12:52:53;;;;;;;0.30;0.20;;;6.40;99.90;;;;;;4902176;29;20471;-78
2022/01/17 12:55:20;;;;;;;0.30;0.20;;;6.30;99.90;;;;;;4901412;29;20476;-78
2022/01/17 12:57:48;;;;;;;0.30;0.20;;;6.30;99.90;;;;;;4901447;29;20480;-79
2022/01/17 13:00:20;;;;;;;0.30;0.20;;;6.30;99.90;;;;;;4901465;29;20429;-77
2022/01/17 13:02:51;;;;;;;0.30;0.30;;;6.40;99.90;;;;;;4901148;29;20914;-77
2022/01/17 13:05:27;;;;;;;0.30;0.20;;;6.40;99.90;;;;;;4901347;29;20479;-77
2022/01/17 13:07:54;;;;;;;0.30;0.20;;;6.40;99.90;;;;;;4901025;29;20437;-78
2022/01/17 13:10:22;;;;;;;0.30;0.20;;;6.40;99.90;;;;;;4901311;29;20437;-77
2022/01/17 13:12:52;;;;;;;0.30;0.20;;;6.40;99.90;;;;;;4901289;29;20441;-77
2022/01/17 13:15:20;;;;;;;0.30;0.20;;;6.60;99.90;;;;;;4901158;29;20479;-77
2022/01/17 13:17:52;;;;;;;0.30;0.20;;;6.50;99.90;;;;;;4901125;29;20473;-77
2022/01/17 13:20:20;;;;;;;0.30;0.30;;;6.50;99.90;;;;;;4901130;29;20504;-77
2022/01/17 13:22:57;;;;;;;0.50;0.50;;;6.50;99.90;;;;;;4901306;29;20437;-77
2022/01/17 13:25:24;;;;;;;0.40;0.40;;;6.50;99.90;;;;;;4900440;29;20479;-77
2022/01/17 13:27:57;;;;;;;0.30;0.30;;;6.40;99.90;;;;;;4900602;29;20437;-78
2022/01/17 13:30:24;;;;;;;0.50;0.50;;;6.30;99.90;;;;;;4901145;29;20441;-79
2022/01/17 13:32:52;;;;;;;0.40;0.30;;;6.30;99.90;;;;;;4900695;29;20474;-79
2022/01/17 13:35:22;;;;;;;0.40;0.40;;;6.30;99.90;;;;;;4900805;29;20483;-79
2022/01/17 13:37:50;;;;;;;0.30;0.20;;;6.30;99.90;;;;;;4900716;29;20473;-78
2022/01/17 13:40:21;;;;;;;0.30;0.30;;;6.20;99.90;;;;;;4900774;29;20465;-78
2022/01/17 13:42:53;;;;;;;0.30;0.30;;;6.10;99.90;;;;;;4900691;29;20437;-80
2022/01/17 13:45:39;;;;;;;0.30;0.30;;;6.10;99.90;;;;;;4900563;29;20479;-80
2022/01/17 13:48:11;;;;;;;0.30;0.20;;;6.00;99.90;;;;;;4900601;29;20436;-79
2022/01/17 13:50:46;;;;;;;0.30;0.20;;;6.00;99.90;;;;;;4900555;29;20445;-79
2022/01/17 13:53:14;;;;;;;0.30;0.20;;;6.00;99.90;;;;;;4900449;29;20441;-79
2022/01/17 13:55:43;;;;;;;0.30;0.20;;;6.10;99.90;;;;;;4900471;29;20444;-79
2022/01/17 13:58:12;;;;;;;0.30;0.20;;;6.00;99.90;;;;;;4900364;29;20483;-78
2022/01/17 14:00:43;;;;;;;0.30;0.20;;;5.90;99.90;;;;;;4900280;29;20441;-77
2022/01/17 14:03:14;;;;;;;0.30;0.20;;;5.90;99.90;;;;;;4900803;29;20440;-76
2022/01/17 14:05:43;;;;;;;0.30;0.20;;;5.80;99.90;;;;;;4900732;29;20460;-76
2022/01/17 14:08:12;;;;;;;0.30;0.30;;;5.70;99.90;;;;;;4899988;29;20436;-76
2022/01/17 14:10:51;;;;;;;0.30;0.30;;;5.70;99.90;;;;;;4900217;29;20441;-76
2022/01/17 14:13:19;;;;;;;0.30;0.20;;;5.60;99.90;;;;;;4900080;29;20440;-76
2022/01/17 14:15:46;;;;;;;0.30;0.20;;;5.50;99.90;;;;;;4900128;29;20441;-75
2022/01/17 14:18:14;;;;;;;0.30;0.20;;;5.50;99.90;;;;;;4899913;29;20540;-75
2022/01/17 14:20:50;;;;;;;0.30;0.20;;;5.50;99.90;;;;;;4899760;29;20874;-75
2022/01/17 14:23:28;;;;;;;0.30;0.20;;;5.40;99.90;;;;;;4899914;29;20449;-75
2022/01/17 14:25:55;;;;;;;0.30;0.30;;;5.40;99.90;;;;;;4899533;29;20898;-75
2022/01/17 14:28:26;;;;;;;0.30;0.20;;;5.40;99.90;;;;;;4900146;29;20433;-75
2022/01/17 14:30:53;;;;;;;0.30;0.30;;;5.40;99.90;;;;;;4899588;29;20440;-75
2022/01/17 14:33:23;;;;;;;0.40;0.37;;;5.40;99.90;;;;;;4899679;29;20493;-75
2022/01/17 14:36:04;;;;;;;0.40;0.27;;;5.40;99.90;;;;;;4900248;29;20448;-75
2022/01/17 14:38:32;;;;;;;0.30;0.30;;;5.50;99.90;;;;;;4898842;29;20477;-75
2022/01/17 14:40:59;;;;;;;0.30;0.20;;;5.50;99.90;;;;;;4899680;29;20437;-76
2022/01/17 14:43:29;;;;;;;0.30;0.20;;;5.50;99.90;;;;;;4899432;29;20531;-77
2022/01/17 14:46:02;;;;;;;0.40;0.40;;;5.50;99.90;;;;;;4899500;29;20480;-77
2022/01/17 14:48:37;;;;;;;0.30;0.20;;;5.50;99.90;;;;;;4899786;29;20552;-77
2022/01/17 14:51:16;;;;;;;0.30;0.20;;;5.50;99.90;;;;;;4899156;29;20445;-76
2022/01/17 14:53:44;;;;;;;0.30;0.20;;;5.50;99.90;;;;;;4899186;29;20571;-77
2022/01/17 15:01:45;;;;;;;0.30;0.20;;;5.40;99.90;;;;;;4899553;29;20413;-83
2022/01/17 15:04:13;;;;;;;0.30;0.30;;;5.40;99.90;;;;;;4899163;29;20480;-79
2022/01/17 15:06:43;;;;;;;1.33;0.60;;;5.40;99.90;;;;;;4898884;29;20937;-81
2022/01/17 15:09:10;;;;;;;0.30;0.30;;;5.40;99.90;;;;;;4899165;29;20434;-77
2022/01/17 15:11:37;;;;;;;0.33;0.27;;;5.30;99.90;;;;;;4899069;29;20445;-82
2022/01/17 15:14:04;;;;;;;0.40;0.30;;;5.20;99.90;;;;;;4898955;29;20485;-81
2022/01/17 15:16:31;;;;;;;0.30;0.20;;;5.30;99.90;;;;;;4899085;29;20413;-81
2022/01/17 15:18:57;;;;;;;0.30;0.20;;;5.20;99.90;;;;;;4898847;29;20477;-80
2022/01/17 15:21:26;;;;;;;0.30;0.20;;;5.20;99.90;;;;;;4898939;29;20441;-77
2022/01/17 15:23:52;;;;;;;0.30;0.30;;;5.20;99.90;;;;;;4898534;29;20473;-76
2022/01/17 15:26:19;;;;;;;0.30;0.30;;;5.20;99.90;;;;;;4898874;29;20448;-76
2022/01/17 15:28:46;;;;;;;0.30;0.20;;;5.20;99.90;;;;;;4898759;29;20438;-76
2022/01/17 15:31:15;;;;;;;0.30;0.20;;;5.10;99.90;;;;;;4898655;29;20449;-76
2022/01/17 15:33:44;;;;;;;0.30;0.20;;;5.10;99.90;;;;;;4898200;29;20543;-76
2022/01/17 15:39:01;;;;;;;0.30;0.30;;;5.00;99.90;;;;;;4917314;23;20495;-78
2022/01/17 15:41:28;;;;;;;0.30;0.20;;;5.00;99.90;;;;;;4917470;29;20448;-78
2022/01/17 15:43:55;;;;;;;0.30;0.30;;;4.90;99.90;;;;;;4917366;29;20464;-78
2022/01/17 15:46:22;;;;;;;0.63;0.63;;;4.90;99.90;;;;;;4917115;29;20863;-78
2022/01/17 15:48:49;;;;;;;0.50;0.30;;;4.80;99.90;;;;;;4916914;29;20799;-79
2022/01/17 15:51:16;;;;;;;1.17;1.03;;;4.80;99.90;;;;;;4917342;29;20432;-80
2022/01/17 15:53:43;;;;;;;0.30;0.20;;;4.70;99.90;;;;;;4916928;29;20472;-80
2022/01/17 15:56:11;;;;;;;0.30;0.30;;;4.70;99.90;;;;;;4917824;29;20435;-79
2022/01/17 15:58:37;;;;;;;0.30;0.20;;;4.70;99.90;;;;;;4916884;29;20472;-79
2022/01/17 16:01:04;;;;;;;0.67;0.67;;;4.70;99.90;;;;;;4917086;29;20959;-79
2022/01/17 16:03:31;;;;;;;0.40;0.30;;;4.60;99.90;;;;;;4917170;29;20479;-79
2022/01/17 16:05:58;;;;;;;0.30;0.20;;;4.60;99.90;;;;;;4916908;29;20440;-79
2022/01/17 16:08:25;;;;;;;0.50;0.30;;;4.60;99.90;;;;;;4916852;29;20934;-80
2022/01/17 16:10:51;;;;;;;0.40;0.40;;;4.60;99.90;;;;;;4917167;29;20436;-79
2022/01/17 16:13:21;;;;;;;0.30;0.20;;;4.50;99.90;;;;;;4916866;29;20436;-80
2022/01/17 16:15:49;;;;;;;0.60;0.30;;;4.50;99.90;;;;;;4917113;29;20444;-78
2022/01/17 16:18:16;;;;;;;0.43;0.43;;;4.50;99.90;;;;;;4917339;29;20778;-77
2022/01/17 16:20:45;;;;;;;0.30;0.27;;;4.50;99.90;;;;;;4916783;29;20929;-77
2022/01/17 16:23:12;;;;;;;0.40;0.30;;;4.50;99.90;;;;;;4916968;29;20436;-78
2022/01/17 16:25:39;;;;;;;0.40;0.40;;;4.50;99.90;;;;;;4917029;29;20432;-78
2022/01/17 16:28:06;;;;;;;0.40;0.30;;;4.40;99.90;;;;;;4916908;29;20460;-77
2022/01/17 16:30:35;;;;;;;0.30;0.30;;;4.40;99.90;;;;;;4917024;29;20425;-77
2022/01/17 16:33:02;;;;;;;0.30;0.30;;;4.50;99.90;;;;;;4916856;29;20436;-78
2022/01/17 16:35:29;;;;;;;0.40;0.30;;;4.50;99.90;;;;;;4916824;29;20476;-78
2022/01/17 16:37:58;;;;;;;0.30;0.20;;;4.50;99.90;;;;;;4916592;29;20472;-75
2022/01/17 16:40:25;;;;;;;0.30;0.20;;;4.40;99.90;;;;;;4916460;29;20502;-75
2022/01/17 16:42:52;;;;;;;0.30;0.20;;;4.40;99.90;;;;;;4916831;29;20518;-75
2022/01/17 16:45:19;;;;;;;0.30;0.20;;;4.40;99.90;;;;;;4916735;29;20472;-75
2022/01/17 16:47:47;;;;;;;0.40;0.30;;;4.40;99.90;;;;;;4917018;29;20440;-77
2022/01/17 16:50:16;;;;;;;0.30;0.27;;;4.40;99.90;;;;;;4916779;29;20428;-78
2022/01/17 16:52:43;;;;;;;0.40;0.30;;;4.40;99.90;;;;;;4916821;29;20508;-75
2022/01/17 16:55:11;;;;;;;0.30;0.20;;;4.40;99.90;;;;;;4916771;29;20511;-75
2022/01/17 16:57:37;;;;;;;0.30;0.20;;;4.40;99.90;;;;;;4916413;29;20789;-75
2022/01/17 17:10:27;;;;;;;0.30;0.30;;;4.40;99.90;;;;;;5629367;23;20862;-77
2022/01/17 17:12:55;;;;;;;0.30;0.27;;;4.40;99.90;;;;;;4919823;29;20444;-77
2022/01/17 17:15:22;;;;;;;0.40;0.40;;;4.40;99.90;;;;;;4920235;29;20467;-77
2022/01/17 18:04:26;;;;;;;0.30;0.30;;;4.30;99.90;;;;;;5038037;23;20519;-76
2022/01/17 18:06:53;;;;;;;0.30;0.30;;;4.30;99.90;;;;;;4919247;29;20436;-75
2022/01/17 18:17:06;;;;;;;0.30;0.20;;;4.40;99.90;;;;;;5179644;23;20516;-76
2022/01/17 18:19:34;;;;;;;0.30;0.30;;;4.40;99.90;;;;;;4918683;29;20535;-76
2022/01/17 18:22:01;;;;;;;0.40;0.40;;;4.30;99.90;;;;;;4918573;29;20930;-77
2022/01/17 18:24:29;;;;;;;0.30;0.20;;;4.30;99.90;;;;;;4918731;29;20476;-78
2022/01/17 18:26:55;;;;;;;0.30;0.30;;;4.30;99.90;;;;;;4918501;29;20925;-77
2022/01/17 18:29:22;;;;;;;0.40;0.30;;;4.30;99.90;;;;;;4937585;29;20444;-77
2022/01/17 18:31:49;;;;;;;0.30;0.30;;;4.30;99.90;;;;;;4937718;29;20447;-77
2022/01/17 18:34:17;;;;;;;0.30;0.30;;;4.30;99.90;;;;;;4937307;29;21014;-77
2022/01/17 18:36:46;;;;;;;0.70;0.40;;;4.30;99.90;;;;;;4937614;29;20435;-77
2022/01/17 18:39:12;;;;;;;0.30;0.20;;;4.30;99.90;;;;;;4937430;29;20475;-77
2022/01/17 18:41:40;;;;;;;0.40;0.33;;;4.30;99.90;;;;;;4937488;29;20438;-77
2022/01/17 18:44:07;;;;;;;0.30;0.30;;;4.30;99.90;;;;;;4937058;29;20982;-77
2022/01/17 18:46:34;;;;;;;0.30;0.27;;;4.30;99.90;;;;;;4937139;29;20517;-77
2022/01/17 18:49:02;;;;;;;0.30;0.20;;;4.40;99.90;;;;;;4937326;29;20439;-77
2022/01/17 18:51:31;;;;;;;0.30;0.20;;;4.30;99.90;;;;;;4937301;29;20451;-77
2022/01/17 18:53:59;;;;;;;0.30;0.30;;;4.30;99.90;;;;;;4937163;29;20475;-77
2022/01/17 18:56:26;;;;;;;0.30;0.30;;;4.30;99.90;;;;;;4937387;29;20550;-77
2022/01/17 18:58:55;;;;;;;0.30;0.30;;;4.30;99.90;;;;;;4936946;29;20455;-77